sensor_id;sensor_type;location;lat;lon;timestamp;pressure;altitude;pressure_sealevel;temperature;humidity
5780;BME280;2916;49.798;10.022;2023-04-01T00:01:52;146436.72;;;8.68;87.71
5780;BME280;2916;49.798;10.022;2023-04-01T00:04:20;146496.25;;;8.93;88.14
5780;BME280;2916;49.798;10.022;2023-04-01T00:06:47;146493.72;;;8.92;87.71
5780;BME280;2916;49.798;10.022;2023-04-01T00:09:15;146491.25;;;8.91;87.16
5780;BME280;2916;49.798;10.022;2023-04-01T00:11:42;146411.97;;;8.58;86.87
5780;BME280;2916;49.798;10.022;2023-04-01T00:14:12;146449.13;;;8.73;86.04
5780;BME280;2916;49.798;10.022;2023-04-01T00:16:40;146509.84;;;8.98;86.36
5780;BME280;2916;49.798;10.022;2023-04-01T00:19:07;146513.56;;;9.00;86.13
5780;BME280;2916;49.798;10.022;2023-04-01T00:21:34;146305.38;;;8.14;85.99
5780;BME280;2916;49.798;10.022;2023-04-01T00:24:02;146418.13;;;8.60;85.09
5780;BME280;2916;49.798;10.022;2023-04-01T00:26:29;146366.09;;;8.39;85.62
5780;BME280;2916;49.798;10.022;2023-04-01T00:28:58;146512.31;;;8.99;85.59
5780;BME280;2916;49.798;10.022;2023-04-01T00:31:26;146297.91;;;8.11;85.11
5780;BME280;2916;49.798;10.022;2023-04-01T00:33:54;146478.88;;;8.85;85.40
5780;BME280;2916;49.798;10.022;2023-04-01T00:36:22;146384.69;;;8.47;84.98
5780;BME280;2916;49.798;10.022;2023-04-01T00:38:50;146522.22;;;9.03;85.01
5780;BME280;2916;49.798;10.022;2023-04-01T00:41:18;146434.25;;;8.67;84.68
5780;BME280;2916;49.798;10.022;2023-04-01T00:43:49;146518.53;;;9.02;85.82
5780;BME280;2916;49.798;10.022;2023-04-01T00:46:17;146402.03;;;8.54;85.40
5780;BME280;2916;49.798;10.022;2023-04-01T00:48:48;146352.44;;;8.33;85.29
5780;BME280;2916;49.798;10.022;2023-04-01T00:51:23;146307.84;;;8.15;85.11
5780;BME280;2916;49.798;10.022;2023-04-01T00:53:54;146503.63;;;8.96;85.46
5780;BME280;2916;49.798;10.022;2023-04-01T00:56:27;146372.31;;;8.42;85.29
5780;BME280;2916;49.798;10.022;2023-04-01T00:59:00;146519.75;;;9.02;85.67
5780;BME280;2916;49.798;10.022;2023-04-01T01:01:30;146518.53;;;9.02;85.60
5780;BME280;2916;49.798;10.022;2023-04-01T01:03:58;146477.66;;;8.85;85.49
5780;BME280;2916;49.798;10.022;2023-04-01T01:06:43;146415.66;;;8.59;85.33
5780;BME280;2916;49.798;10.022;2023-04-01T01:09:38;146421.88;;;8.62;85.43
5780;BME280;2916;49.798;10.022;2023-04-01T01:12:13;146352.44;;;8.33;85.82
5780;BME280;2916;49.798;10.022;2023-04-01T01:15:02;146498.69;;;8.94;85.54
5780;BME280;2916;49.798;10.022;2023-04-01T01:17:45;146418.13;;;8.60;85.48
5780;BME280;2916;49.798;10.022;2023-04-01T01:24:13;146504.91;;;8.96;85.68
5780;BME280;2916;49.798;10.022;2023-04-01T01:27:06;146501.16;;;8.95;85.46
5780;BME280;2916;49.798;10.022;2023-04-01T01:30:09;146461.50;;;8.78;85.79
5780;BME280;2916;49.798;10.022;2023-04-01T01:35:44;146455.31;;;8.76;85.00
5780;BME280;2916;49.798;10.022;2023-04-01T01:38:16;146374.78;;;8.43;85.55
5780;BME280;2916;49.798;10.022;2023-04-01T01:40:48;146493.72;;;8.92;84.64
5780;BME280;2916;49.798;10.022;2023-04-01T01:43:23;146496.25;;;8.93;84.87
5780;BME280;2916;49.798;10.022;2023-04-01T01:45:56;146387.16;;;8.48;84.75
5780;BME280;2916;49.798;10.022;2023-04-01T01:48:27;146488.78;;;8.90;84.95
5780;BME280;2916;49.798;10.022;2023-04-01T01:50:57;146457.81;;;8.77;84.61
5780;BME280;2916;49.798;10.022;2023-04-01T01:53:24;146491.25;;;8.91;84.77
5780;BME280;2916;49.798;10.022;2023-04-01T01:55:51;146491.25;;;8.91;84.42
5780;BME280;2916;49.798;10.022;2023-04-01T01:58:23;146409.50;;;8.57;84.97
5780;BME280;2916;49.798;10.022;2023-04-01T02:00:57;146431.78;;;8.66;85.22
5780;BME280;2916;49.798;10.022;2023-04-01T02:03:28;146478.88;;;8.85;85.25
5780;BME280;2916;49.798;10.022;2023-04-01T02:06:02;146434.25;;;8.67;85.36
5780;BME280;2916;49.798;10.022;2023-04-01T02:08:35;146404.50;;;8.55;85.41
5780;BME280;2916;49.798;10.022;2023-04-01T02:11:08;146485.03;;;8.88;85.35
5780;BME280;2916;49.798;10.022;2023-04-01T02:13:41;146478.88;;;8.85;85.21
5780;BME280;2916;49.798;10.022;2023-04-01T02:16:15;146447.91;;;8.73;85.34
5780;BME280;2916;49.798;10.022;2023-04-01T02:18:45;146467.72;;;8.81;85.69
5780;BME280;2916;49.798;10.022;2023-04-01T02:21:18;146389.63;;;8.49;85.83
5780;BME280;2916;49.798;10.022;2023-04-01T02:23:48;146471.44;;;8.82;85.91
5780;BME280;2916;49.798;10.022;2023-04-01T02:26:17;146467.72;;;8.81;85.67
5780;BME280;2916;49.798;10.022;2023-04-01T02:28:48;146457.81;;;8.77;86.35
5780;BME280;2916;49.798;10.022;2023-04-01T02:31:17;146408.22;;;8.56;85.67
5780;BME280;2916;49.798;10.022;2023-04-01T02:33:45;146454.06;;;8.75;85.73
5780;BME280;2916;49.798;10.022;2023-04-01T02:36:14;146411.97;;;8.58;85.89
5780;BME280;2916;49.798;10.022;2023-04-01T02:38:45;146206.25;;;7.73;85.69
5780;BME280;2916;49.798;10.022;2023-04-01T02:41:13;146428.06;;;8.65;85.52
5780;BME280;2916;49.798;10.022;2023-04-01T02:43:40;146421.88;;;8.62;85.54
5780;BME280;2916;49.798;10.022;2023-04-01T02:46:08;146414.41;;;8.59;85.96
5780;BME280;2916;49.798;10.022;2023-04-01T02:48:35;146455.31;;;8.76;85.75
5780;BME280;2916;49.798;10.022;2023-04-01T02:51:03;146462.75;;;8.79;85.06
5780;BME280;2916;49.798;10.022;2023-04-01T02:53:30;146461.50;;;8.78;85.28
5780;BME280;2916;49.798;10.022;2023-04-01T02:55:59;146389.63;;;8.49;84.75
5780;BME280;2916;49.798;10.022;2023-04-01T02:58:26;146300.38;;;8.12;84.12
5780;BME280;2916;49.798;10.022;2023-04-01T03:00:53;146436.72;;;8.68;84.36
5780;BME280;2916;49.798;10.022;2023-04-01T03:03:20;146471.44;;;8.82;84.09
5780;BME280;2916;49.798;10.022;2023-04-01T03:05:47;146357.38;;;8.35;84.10
5780;BME280;2916;49.798;10.022;2023-04-01T03:08:14;146402.03;;;8.54;84.49
5780;BME280;2916;49.798;10.022;2023-04-01T03:10:41;146369.81;;;8.41;84.53
5780;BME280;2916;49.798;10.022;2023-04-01T03:13:10;146416.88;;;8.60;84.17
5780;BME280;2916;49.798;10.022;2023-04-01T03:15:37;146431.78;;;8.66;84.35
5780;BME280;2916;49.798;10.022;2023-04-01T03:18:04;146476.41;;;8.84;84.23
5780;BME280;2916;49.798;10.022;2023-04-01T03:20:31;146468.97;;;8.81;84.85
5780;BME280;2916;49.798;10.022;2023-04-01T03:22:59;146429.31;;;8.65;84.86
5780;BME280;2916;49.798;10.022;2023-04-01T03:25:26;146462.75;;;8.79;84.98
5780;BME280;2916;49.798;10.022;2023-04-01T03:27:54;146449.13;;;8.73;83.96
5780;BME280;2916;49.798;10.022;2023-04-01T03:30:22;146378.47;;;8.44;84.26
5780;BME280;2916;49.798;10.022;2023-04-01T03:32:50;146330.09;;;8.24;84.31
5780;BME280;2916;49.798;10.022;2023-04-01T03:35:17;146393.38;;;8.50;84.68
5780;BME280;2916;49.798;10.022;2023-04-01T03:37:44;146394.59;;;8.51;85.06
5780;BME280;2916;49.798;10.022;2023-04-01T03:40:11;146119.56;;;7.37;85.09
5780;BME280;2916;49.798;10.022;2023-04-01T03:42:39;146461.50;;;8.78;84.97
5780;BME280;2916;49.798;10.022;2023-04-01T03:45:07;146403.28;;;8.54;84.69
5780;BME280;2916;49.798;10.022;2023-04-01T03:47:36;146309.06;;;8.16;84.56
5780;BME280;2916;49.798;10.022;2023-04-01T03:50:05;146459.06;;;8.77;84.87
5780;BME280;2916;49.798;10.022;2023-04-01T03:52:33;146415.66;;;8.59;84.39
5780;BME280;2916;49.798;10.022;2023-04-01T03:55:01;146438.00;;;8.69;84.52
5780;BME280;2916;49.798;10.022;2023-04-01T03:57:31;146331.34;;;8.25;84.34
5780;BME280;2916;49.798;10.022;2023-04-01T03:59:58;146411.97;;;8.58;84.37
5780;BME280;2916;49.798;10.022;2023-04-01T04:02:25;146461.50;;;8.78;85.15
5780;BME280;2916;49.798;10.022;2023-04-01T04:04:54;146446.63;;;8.72;85.61
5780;BME280;2916;49.798;10.022;2023-04-01T04:07:21;146075.03;;;7.19;85.32
5780;BME280;2916;49.798;10.022;2023-04-01T04:09:48;146337.56;;;8.27;85.36
5780;BME280;2916;49.798;10.022;2023-04-01T04:12:15;146374.78;;;8.43;85.18
5780;BME280;2916;49.798;10.022;2023-04-01T04:14:43;146463.97;;;8.79;85.02
5780;BME280;2916;49.798;10.022;2023-04-01T04:17:10;146397.06;;;8.52;84.15
5780;BME280;2916;49.798;10.022;2023-04-01T04:19:41;146466.50;;;8.80;84.25
5780;BME280;2916;49.798;10.022;2023-04-01T04:22:10;146389.63;;;8.49;84.15
5780;BME280;2916;49.798;10.022;2023-04-01T04:24:38;146381.00;;;8.45;84.04
5780;BME280;2916;49.798;10.022;2023-04-01T04:27:05;146468.97;;;8.81;83.99
5780;BME280;2916;49.798;10.022;2023-04-01T04:29:33;146435.47;;;8.68;83.96
5780;BME280;2916;49.798;10.022;2023-04-01T04:32:00;146363.63;;;8.38;84.19
5780;BME280;2916;49.798;10.022;2023-04-01T04:34:27;146466.50;;;8.80;84.54
5780;BME280;2916;49.798;10.022;2023-04-01T04:36:54;146468.97;;;8.81;83.94
5780;BME280;2916;49.798;10.022;2023-04-01T04:39:23;146359.84;;;8.36;85.14
5780;BME280;2916;49.798;10.022;2023-04-01T04:41:50;146459.06;;;8.77;84.58
5780;BME280;2916;49.798;10.022;2023-04-01T04:44:17;146459.06;;;8.77;85.01
5780;BME280;2916;49.798;10.022;2023-04-01T04:46:44;146439.22;;;8.69;85.67
5780;BME280;2916;49.798;10.022;2023-04-01T04:49:11;146439.22;;;8.69;85.70
5780;BME280;2916;49.798;10.022;2023-04-01T04:51:39;146429.31;;;8.65;86.72
5780;BME280;2916;49.798;10.022;2023-04-01T04:54:07;146419.41;;;8.61;86.76
5780;BME280;2916;49.798;10.022;2023-04-01T04:56:36;146378.47;;;8.44;86.95
5780;BME280;2916;49.798;10.022;2023-04-01T04:59:03;146410.72;;;8.57;87.34
5780;BME280;2916;49.798;10.022;2023-04-01T05:01:30;146390.91;;;8.49;88.16
5780;BME280;2916;49.798;10.022;2023-04-01T05:03:59;146244.63;;;7.89;88.01
5780;BME280;2916;49.798;10.022;2023-04-01T05:06:26;146136.91;;;7.45;87.47
5780;BME280;2916;49.798;10.022;2023-04-01T05:08:55;146322.66;;;8.21;87.30
5780;BME280;2916;49.798;10.022;2023-04-01T05:11:23;146345.00;;;8.30;87.60
5780;BME280;2916;49.798;10.022;2023-04-01T05:13:53;146238.47;;;7.86;87.85
5780;BME280;2916;49.798;10.022;2023-04-01T05:16:20;146384.69;;;8.47;87.78
5780;BME280;2916;49.798;10.022;2023-04-01T05:18:48;146382.22;;;8.46;87.65
5780;BME280;2916;49.798;10.022;2023-04-01T05:21:15;146285.56;;;8.06;87.44
5780;BME280;2916;49.798;10.022;2023-04-01T05:23:42;146349.94;;;8.32;87.45
5780;BME280;2916;49.798;10.022;2023-04-01T05:26:12;146384.69;;;8.47;87.75
5780;BME280;2916;49.798;10.022;2023-04-01T05:28:40;146294.19;;;8.09;87.25
5780;BME280;2916;49.798;10.022;2023-04-01T05:31:09;146317.75;;;8.19;86.94
5780;BME280;2916;49.798;10.022;2023-04-01T05:33:37;146302.84;;;8.13;87.55
5780;BME280;2916;49.798;10.022;2023-04-01T05:36:09;146306.59;;;8.15;86.55
5780;BME280;2916;49.798;10.022;2023-04-01T05:38:36;146362.41;;;8.38;86.33
5780;BME280;2916;49.798;10.022;2023-04-01T05:41:04;146404.50;;;8.55;86.64
5780;BME280;2916;49.798;10.022;2023-04-01T05:43:31;146400.81;;;8.53;87.16
5780;BME280;2916;49.798;10.022;2023-04-01T05:45:58;146363.63;;;8.38;86.80
5780;BME280;2916;49.798;10.022;2023-04-01T05:48:27;146252.09;;;7.92;85.92
5780;BME280;2916;49.798;10.022;2023-04-01T05:50:54;146421.88;;;8.62;85.70
5780;BME280;2916;49.798;10.022;2023-04-01T05:53:21;146364.88;;;8.39;86.16
5780;BME280;2916;49.798;10.022;2023-04-01T05:55:48;146341.25;;;8.29;85.49
5780;BME280;2916;49.798;10.022;2023-04-01T05:58:16;146411.97;;;8.58;85.30
5780;BME280;2916;49.798;10.022;2023-04-01T06:00:44;146376.00;;;8.43;84.69
5780;BME280;2916;49.798;10.022;2023-04-01T06:03:11;146431.78;;;8.66;84.19
5780;BME280;2916;49.798;10.022;2023-04-01T06:05:42;146288.00;;;8.07;84.72
5780;BME280;2916;49.798;10.022;2023-04-01T06:08:12;146457.81;;;8.77;84.67
5780;BME280;2916;49.798;10.022;2023-04-01T06:10:58;146444.16;;;8.71;83.95
5780;BME280;2916;49.798;10.022;2023-04-01T06:13:47;146357.38;;;8.35;84.22
5780;BME280;2916;49.798;10.022;2023-04-01T06:16:26;146430.53;;;8.66;83.42
5780;BME280;2916;49.798;10.022;2023-04-01T06:19:14;146226.06;;;7.81;83.04
5780;BME280;2916;49.798;10.022;2023-04-01T06:28:50;146347.47;;;8.31;83.13
5780;BME280;2916;49.798;10.022;2023-04-01T06:31:51;146478.88;;;8.85;83.53
5780;BME280;2916;49.798;10.022;2023-04-01T06:41:43;146532.16;;;9.07;82.86
5780;BME280;2916;49.798;10.022;2023-04-01T06:44:23;146259.53;;;7.95;82.55
5780;BME280;2916;49.798;10.022;2023-04-01T06:47:04;146449.13;;;8.73;82.70
5780;BME280;2916;49.798;10.022;2023-04-01T06:49:52;146573.09;;;9.24;83.02
5780;BME280;2916;49.798;10.022;2023-04-01T06:52:31;146516.06;;;9.01;82.30
5780;BME280;2916;49.798;10.022;2023-04-01T06:55:24;146587.94;;;9.30;82.10
5780;BME280;2916;49.798;10.022;2023-04-01T06:57:57;146580.50;;;9.27;82.41
5780;BME280;2916;49.798;10.022;2023-04-01T07:00:31;146566.88;;;9.22;82.02
5780;BME280;2916;49.798;10.022;2023-04-01T07:03:18;146615.22;;;9.42;82.03
5780;BME280;2916;49.798;10.022;2023-04-01T07:05:48;146597.84;;;9.34;82.09
5780;BME280;2916;49.798;10.022;2023-04-01T07:08:22;146602.84;;;9.37;81.89
5780;BME280;2916;49.798;10.022;2023-04-01T07:10:55;146609.00;;;9.39;81.16
5780;BME280;2916;49.798;10.022;2023-04-01T07:13:28;146630.13;;;9.48;81.49
5780;BME280;2916;49.798;10.022;2023-04-01T07:16:08;146699.56;;;9.76;80.55
5780;BME280;2916;49.798;10.022;2023-04-01T07:18:43;146697.09;;;9.75;80.83
5780;BME280;2916;49.798;10.022;2023-04-01T07:21:23;146682.19;;;9.69;81.13
5780;BME280;2916;49.798;10.022;2023-04-01T07:23:57;146674.72;;;9.66;81.01
5780;BME280;2916;49.798;10.022;2023-04-01T07:26:28;146653.66;;;9.57;80.14
5780;BME280;2916;49.798;10.022;2023-04-01T07:28:57;146766.53;;;10.04;80.59
5780;BME280;2916;49.798;10.022;2023-04-01T07:31:43;146775.22;;;10.07;80.66
5780;BME280;2916;49.798;10.022;2023-04-01T07:34:19;146751.63;;;9.98;79.21
5780;BME280;2916;49.798;10.022;2023-04-01T07:36:59;146725.63;;;9.87;80.45
5780;BME280;2916;49.798;10.022;2023-04-01T07:39:42;146739.25;;;9.93;80.58
5780;BME280;2916;49.798;10.022;2023-04-01T07:42:25;146725.63;;;9.87;80.14
5780;BME280;2916;49.798;10.022;2023-04-01T07:45:01;146723.09;;;9.86;80.84
5780;BME280;2916;49.798;10.022;2023-04-01T07:47:50;146738.00;;;9.92;81.92
5780;BME280;2916;49.798;10.022;2023-04-01T07:50:27;146687.16;;;9.71;81.84
5780;BME280;2916;49.798;10.022;2023-04-01T07:53:07;146697.09;;;9.75;82.52
5780;BME280;2916;49.798;10.022;2023-04-01T07:55:43;146687.16;;;9.71;82.87
5780;BME280;2916;49.798;10.022;2023-04-01T07:58:23;146683.44;;;9.70;83.13
5780;BME280;2916;49.798;10.022;2023-04-01T08:01:00;146658.66;;;9.59;84.40
5780;BME280;2916;49.798;10.022;2023-04-01T08:03:47;146699.56;;;9.76;83.14
5780;BME280;2916;49.798;10.022;2023-04-01T08:06:25;146626.38;;;9.46;83.17
5780;BME280;2916;49.798;10.022;2023-04-01T08:09:03;146627.63;;;9.47;84.97
5780;BME280;2916;49.798;10.022;2023-04-01T08:11:46;146579.25;;;9.27;85.07
5780;BME280;2916;49.798;10.022;2023-04-01T08:14:27;146637.53;;;9.51;86.31
5780;BME280;2916;49.798;10.022;2023-04-01T08:17:02;146612.75;;;9.41;87.43
5780;BME280;2916;49.798;10.022;2023-04-01T08:19:51;146625.16;;;9.46;87.42
5780;BME280;2916;49.798;10.022;2023-04-01T08:22:27;146604.06;;;9.37;87.04
5780;BME280;2916;49.798;10.022;2023-04-01T08:24:58;146545.81;;;9.13;88.13
5780;BME280;2916;49.798;10.022;2023-04-01T08:27:37;146495.00;;;8.92;88.40
5780;BME280;2916;49.798;10.022;2023-04-01T08:30:18;146590.47;;;9.31;88.71
5780;BME280;2916;49.798;10.022;2023-04-01T08:32:51;146610.28;;;9.40;88.13
5780;BME280;2916;49.798;10.022;2023-04-01T08:35:27;146600.38;;;9.36;87.68
5780;BME280;2916;49.798;10.022;2023-04-01T08:38:01;146558.19;;;9.18;89.46
5780;BME280;2916;49.798;10.022;2023-04-01T08:44:23;146605.31;;;9.38;91.13
5780;BME280;2916;49.798;10.022;2023-04-01T08:47:35;146566.88;;;9.22;90.82
5780;BME280;2916;49.798;10.022;2023-04-01T08:50:34;146556.97;;;9.18;90.77
5780;BME280;2916;49.798;10.022;2023-04-01T08:53:12;146573.09;;;9.24;92.66
5780;BME280;2916;49.798;10.022;2023-04-01T08:56:00;146538.34;;;9.10;93.02
5780;BME280;2916;49.798;10.022;2023-04-01T08:58:54;146538.34;;;9.10;93.36
5780;BME280;2916;49.798;10.022;2023-04-01T09:01:52;146406.97;;;8.56;92.67
5780;BME280;2916;49.798;10.022;2023-04-01T09:05:03;146496.25;;;8.93;92.84
5780;BME280;2916;49.798;10.022;2023-04-01T09:07:44;146470.19;;;8.82;92.52
5780;BME280;2916;49.798;10.022;2023-04-01T09:10:38;146553.25;;;9.16;93.21
5780;BME280;2916;49.798;10.022;2023-04-01T09:13:47;146488.78;;;8.90;91.93
5780;BME280;2916;49.798;10.022;2023-04-01T09:16:57;146560.66;;;9.19;92.58
5780;BME280;2916;49.798;10.022;2023-04-01T09:19:59;146566.88;;;9.22;92.32
5780;BME280;2916;49.798;10.022;2023-04-01T09:22:47;146630.13;;;9.48;92.43
5780;BME280;2916;49.798;10.022;2023-04-01T09:25:41;146697.09;;;9.75;91.68
5780;BME280;2916;49.798;10.022;2023-04-01T09:28:18;146747.94;;;9.96;90.36
5780;BME280;2916;49.798;10.022;2023-04-01T09:31:19;146783.91;;;10.11;88.99
5780;BME280;2916;49.798;10.022;2023-04-01T09:34:19;146771.47;;;10.06;89.22
5780;BME280;2916;49.798;10.022;2023-04-01T09:37:08;146829.88;;;10.30;88.36
5780;BME280;2916;49.798;10.022;2023-04-01T09:40:09;146781.44;;;10.10;87.37
5780;BME280;2916;49.798;10.022;2023-04-01T09:43:02;146771.47;;;10.06;87.60
5780;BME280;2916;49.798;10.022;2023-04-01T09:45:44;146828.59;;;10.29;88.90
5780;BME280;2916;49.798;10.022;2023-04-01T09:48:37;146853.44;;;10.40;89.25
5780;BME280;2916;49.798;10.022;2023-04-01T09:51:23;146735.53;;;9.91;88.80
5780;BME280;2916;49.798;10.022;2023-04-01T09:54:16;146807.47;;;10.21;87.96
5780;BME280;2916;49.798;10.022;2023-04-01T09:57:26;146781.44;;;10.10;87.93
5780;BME280;2916;49.798;10.022;2023-04-01T10:00:42;146675.97;;;9.67;87.26
5780;BME280;2916;49.798;10.022;2023-04-01T10:04:05;146754.16;;;9.99;87.56
5780;BME280;2916;49.798;10.022;2023-04-01T10:14:17;146771.47;;;10.06;89.11
5780;BME280;2916;49.798;10.022;2023-04-01T10:17:20;146786.38;;;10.12;89.83
5780;BME280;2916;49.798;10.022;2023-04-01T10:20:21;146756.63;;;10.00;89.41
5780;BME280;2916;49.798;10.022;2023-04-01T10:23:27;146786.38;;;10.12;88.50
5780;BME280;2916;49.798;10.022;2023-04-01T10:26:44;146803.75;;;10.19;87.67
5780;BME280;2916;49.798;10.022;2023-04-01T10:30:04;146836.03;;;10.32;89.49
5780;BME280;2916;49.798;10.022;2023-04-01T10:33:14;146796.31;;;10.16;88.76
5780;BME280;2916;49.798;10.022;2023-04-01T10:36:30;146860.88;;;10.43;89.34
5780;BME280;2916;49.798;10.022;2023-04-01T10:43:22;146746.69;;;9.96;88.12
5780;BME280;2916;49.798;10.022;2023-04-01T10:46:51;146843.50;;;10.36;89.04
5780;BME280;2916;49.798;10.022;2023-04-01T10:49:46;146796.31;;;10.16;88.91
5780;BME280;2916;49.798;10.022;2023-04-01T10:53:00;146818.66;;;10.25;88.97
5780;BME280;2916;49.798;10.022;2023-04-01T10:56:12;146801.28;;;10.18;90.66
5780;BME280;2916;49.798;10.022;2023-04-01T10:59:42;146829.88;;;10.30;89.61
5780;BME280;2916;49.798;10.022;2023-04-01T11:06:17;146849.72;;;10.38;90.28
5780;BME280;2916;49.798;10.022;2023-04-01T11:09:54;146821.19;;;10.26;90.96
5780;BME280;2916;49.798;10.022;2023-04-01T11:16:31;146775.22;;;10.07;90.80
5780;BME280;2916;49.798;10.022;2023-04-01T11:19:56;146812.44;;;10.23;91.41
5780;BME280;2916;49.798;10.022;2023-04-01T11:23:10;146788.84;;;10.13;92.63
5780;BME280;2916;49.798;10.022;2023-04-01T11:26:09;146845.97;;;10.37;93.48
5780;BME280;2916;49.798;10.022;2023-04-01T11:29:04;146787.63;;;10.13;92.70
5780;BME280;2916;49.798;10.022;2023-04-01T11:31:47;146759.09;;;10.01;92.78
5780;BME280;2916;49.798;10.022;2023-04-01T11:37:36;146791.38;;;10.14;95.44
5780;BME280;2916;49.798;10.022;2023-04-01T11:40:19;146769.00;;;10.05;95.03
5780;BME280;2916;49.798;10.022;2023-04-01T11:42:57;146798.78;;;10.17;94.59
5780;BME280;2916;49.798;10.022;2023-04-01T11:45:36;146729.31;;;9.89;95.41
5780;BME280;2916;49.798;10.022;2023-04-01T11:48:44;146843.50;;;10.36;97.13
5780;BME280;2916;49.798;10.022;2023-04-01T11:51:52;146853.44;;;10.40;96.99
5780;BME280;2916;49.798;10.022;2023-04-01T11:54:54;146843.50;;;10.36;97.49
5780;BME280;2916;49.798;10.022;2023-04-01T11:57:46;146721.88;;;9.86;97.99
5780;BME280;2916;49.798;10.022;2023-04-01T12:00:45;146850.97;;;10.39;98.64
5780;BME280;2916;49.798;10.022;2023-04-01T12:03:55;146778.94;;;10.09;97.96
5780;BME280;2916;49.798;10.022;2023-04-01T12:06:37;146687.16;;;9.71;97.05
5780;BME280;2916;49.798;10.022;2023-04-01T12:09:19;146795.06;;;10.16;99.20
5780;BME280;2916;49.798;10.022;2023-04-01T12:12:02;146682.19;;;9.69;97.44
5780;BME280;2916;49.798;10.022;2023-04-01T12:14:41;146776.47;;;10.08;100.00
5780;BME280;2916;49.798;10.022;2023-04-01T12:17:36;146649.97;;;9.56;100.00
5780;BME280;2916;49.798;10.022;2023-04-01T12:20:37;146790.09;;;10.14;100.00
5780;BME280;2916;49.798;10.022;2023-04-01T12:23:24;146786.38;;;10.12;100.00
5780;BME280;2916;49.798;10.022;2023-04-01T12:26:19;146765.31;;;10.03;100.00
5780;BME280;2916;49.798;10.022;2023-04-01T12:29:09;146783.91;;;10.11;100.00
5780;BME280;2916;49.798;10.022;2023-04-01T12:31:52;146807.47;;;10.21;100.00
5780;BME280;2916;49.798;10.022;2023-04-01T12:34:43;146821.19;;;10.26;99.93
5780;BME280;2916;49.798;10.022;2023-04-01T12:37:39;146828.59;;;10.29;99.60
5780;BME280;2916;49.798;10.022;2023-04-01T12:40:48;146801.28;;;10.18;99.06
5780;BME280;2916;49.798;10.022;2023-04-01T12:44:01;146811.22;;;10.22;99.68
5780;BME280;2916;49.798;10.022;2023-04-01T12:46:45;146841.03;;;10.35;99.68
5780;BME280;2916;49.798;10.022;2023-04-01T12:49:44;146873.28;;;10.48;99.58
5780;BME280;2916;49.798;10.022;2023-04-01T12:52:28;146883.19;;;10.52;98.12
5780;BME280;2916;49.798;10.022;2023-04-01T12:55:37;146868.34;;;10.46;97.78
5780;BME280;2916;49.798;10.022;2023-04-01T12:59:03;146960.16;;;10.84;97.03
5780;BME280;2916;49.798;10.022;2023-04-01T13:02:01;146956.44;;;10.82;97.87
5780;BME280;2916;49.798;10.022;2023-04-01T13:04:55;146961.38;;;10.84;96.53
5780;BME280;2916;49.798;10.022;2023-04-01T13:07:57;146944.03;;;10.77;96.26
5780;BME280;2916;49.798;10.022;2023-04-01T13:10:59;146955.19;;;10.81;96.97
5780;BME280;2916;49.798;10.022;2023-04-01T13:16:39;146908.03;;;10.62;98.22
5780;BME280;2916;49.798;10.022;2023-04-01T13:19:19;146930.34;;;10.71;97.21
5780;BME280;2916;49.798;10.022;2023-04-01T13:21:58;146864.59;;;10.44;98.26
5780;BME280;2916;49.798;10.022;2023-04-01T13:24:45;146910.50;;;10.63;98.67
5780;BME280;2916;49.798;10.022;2023-04-01T13:27:28;146853.44;;;10.40;98.55
5780;BME280;2916;49.798;10.022;2023-04-01T13:30:20;146845.97;;;10.37;100.00
5780;BME280;2916;49.798;10.022;2023-04-01T13:32:59;146837.28;;;10.33;99.35
5780;BME280;2916;49.798;10.022;2023-04-01T13:35:40;146862.13;;;10.43;100.00
5780;BME280;2916;49.798;10.022;2023-04-01T13:38:35;146850.97;;;10.39;100.00
5780;BME280;2916;49.798;10.022;2023-04-01T13:41:21;146858.41;;;10.42;100.00
5780;BME280;2916;49.798;10.022;2023-04-01T13:44:00;146807.47;;;10.21;100.00
5780;BME280;2916;49.798;10.022;2023-04-01T13:46:51;146831.09;;;10.30;100.00
5780;BME280;2916;49.798;10.022;2023-04-01T13:49:46;146752.91;;;9.98;100.00
5780;BME280;2916;49.798;10.022;2023-04-01T13:52:52;146746.69;;;9.96;100.00
5780;BME280;2916;49.798;10.022;2023-04-01T13:55:33;146786.38;;;10.12;100.00
5780;BME280;2916;49.798;10.022;2023-04-01T13:58:54;146769.00;;;10.05;100.00
5780;BME280;2916;49.798;10.022;2023-04-01T14:01:32;146769.00;;;10.05;100.00
5780;BME280;2916;49.798;10.022;2023-04-01T14:04:45;146786.38;;;10.12;100.00
5780;BME280;2916;49.798;10.022;2023-04-01T14:07:32;146793.84;;;10.15;100.00
5780;BME280;2916;49.798;10.022;2023-04-01T14:10:19;146798.78;;;10.17;100.00
5780;BME280;2916;49.798;10.022;2023-04-01T14:12:59;146757.84;;;10.00;100.00
5780;BME280;2916;49.798;10.022;2023-04-01T14:19:06;146827.34;;;10.29;100.00
5780;BME280;2916;49.798;10.022;2023-04-01T14:21:41;146811.22;;;10.22;100.00
5780;BME280;2916;49.798;10.022;2023-04-01T14:24:40;146826.13;;;10.28;100.00
5780;BME280;2916;49.798;10.022;2023-04-01T14:27:50;146837.28;;;10.33;100.00
5780;BME280;2916;49.798;10.022;2023-04-01T14:31:03;146863.34;;;10.44;100.00
5780;BME280;2916;49.798;10.022;2023-04-01T14:33:50;146843.50;;;10.36;100.00
5780;BME280;2916;49.798;10.022;2023-04-01T14:36:43;146914.22;;;10.65;100.00
5780;BME280;2916;49.798;10.022;2023-04-01T14:39:39;146927.91;;;10.70;100.00
5780;BME280;2916;49.798;10.022;2023-04-01T14:42:35;146699.56;;;9.76;100.00
5780;BME280;2916;49.798;10.022;2023-04-01T14:45:36;146853.44;;;10.40;100.00
5780;BME280;2916;49.798;10.022;2023-04-01T14:48:23;146858.41;;;10.42;100.00
5780;BME280;2916;49.798;10.022;2023-04-01T14:50:54;146860.88;;;10.43;100.00
5780;BME280;2916;49.798;10.022;2023-04-01T14:53:29;146843.50;;;10.36;100.00
5780;BME280;2916;49.798;10.022;2023-04-01T14:56:00;146783.91;;;10.11;100.00
5780;BME280;2916;49.798;10.022;2023-04-01T14:58:43;146761.56;;;10.02;100.00
5780;BME280;2916;49.798;10.022;2023-04-01T15:01:32;146776.47;;;10.08;100.00
5780;BME280;2916;49.798;10.022;2023-04-01T15:04:31;146746.69;;;9.96;100.00
5780;BME280;2916;49.798;10.022;2023-04-01T15:07:35;146689.63;;;9.72;100.00
5780;BME280;2916;49.798;10.022;2023-04-01T15:10:33;146761.56;;;10.02;100.00
5780;BME280;2916;49.798;10.022;2023-04-01T15:13:14;146781.44;;;10.10;100.00
5780;BME280;2916;49.798;10.022;2023-04-01T15:16:04;146827.34;;;10.29;100.00